sensor_id;sensor_type;location;lat;lon;timestamp;P1;durP1;ratioP1;P2;durP2;ratioP2
60641;SDS011;46837;52.446;-1.930;2024-02-15T00:00:08;6.28;;;4.62;;
60641;SDS011;46837;52.446;-1.930;2024-02-15T00:01:07;8.52;;;5.16;;
60641;SDS011;46837;52.446;-1.930;2024-02-15T00:02:07;6.46;;;5.22;;
60641;SDS011;46837;52.446;-1.930;2024-02-15T00:03:08;5.78;;;4.92;;
60641;SDS011;46837;52.446;-1.930;2024-02-15T00:04:07;7.32;;;5.68;;
60641;SDS011;46837;52.446;-1.930;2024-02-15T00:05:07;5.80;;;5.26;;
60641;SDS011;46837;52.446;-1.930;2024-02-15T00:06:07;5.76;;;5.14;;
60641;SDS011;46837;52.446;-1.930;2024-02-15T00:07:07;5.82;;;4.84;;
60641;SDS011;46837;52.446;-1.930;2024-02-15T00:08:07;5.40;;;4.88;;
60641;SDS011;46837;52.446;-1.930;2024-02-15T00:09:07;6.46;;;5.64;;
60641;SDS011;46837;52.446;-1.930;2024-02-15T00:10:07;6.10;;;5.44;;
60641;SDS011;46837;52.446;-1.930;2024-02-15T00:11:07;6.14;;;5.24;;
60641;SDS011;46837;52.446;-1.930;2024-02-15T00:12:07;9.78;;;5.40;;
60641;SDS011;46837;52.446;-1.930;2024-02-15T00:13:07;6.84;;;6.14;;
60641;SDS011;46837;52.446;-1.930;2024-02-15T00:14:07;7.32;;;4.92;;
60641;SDS011;46837;52.446;-1.930;2024-02-15T00:15:07;6.88;;;5.08;;
60641;SDS011;46837;52.446;-1.930;2024-02-15T00:16:07;5.98;;;5.04;;
60641;SDS011;46837;52.446;-1.930;2024-02-15T00:17:07;6.64;;;4.92;;
60641;SDS011;46837;52.446;-1.930;2024-02-15T00:18:07;6.48;;;5.92;;
60641;SDS011;46837;52.446;-1.930;2024-02-15T00:19:07;6.82;;;5.26;;
60641;SDS011;46837;52.446;-1.930;2024-02-15T00:20:10;9.06;;;5.86;;
60641;SDS011;46837;52.446;-1.930;2024-02-15T00:21:07;6.22;;;5.60;;
60641;SDS011;46837;52.446;-1.930;2024-02-15T00:22:07;6.92;;;6.20;;
60641;SDS011;46837;52.446;-1.930;2024-02-15T00:23:07;8.02;;;5.28;;
60641;SDS011;46837;52.446;-1.930;2024-02-15T00:24:07;6.24;;;5.64;;
60641;SDS011;46837;52.446;-1.930;2024-02-15T00:25:07;8.40;;;5.58;;
60641;SDS011;46837;52.446;-1.930;2024-02-15T00:26:07;8.06;;;6.52;;
60641;SDS011;46837;52.446;-1.930;2024-02-15T00:27:07;9.06;;;6.72;;
60641;SDS011;46837;52.446;-1.930;2024-02-15T00:28:07;7.92;;;6.54;;
60641;SDS011;46837;52.446;-1.930;2024-02-15T00:29:07;7.04;;;6.02;;
60641;SDS011;46837;52.446;-1.930;2024-02-15T00:30:08;11.00;;;7.04;;
60641;SDS011;46837;52.446;-1.930;2024-02-15T00:31:07;7.92;;;6.52;;
60641;SDS011;46837;52.446;-1.930;2024-02-15T00:32:07;7.96;;;6.84;;
60641;SDS011;46837;52.446;-1.930;2024-02-15T00:33:07;7.74;;;6.18;;
60641;SDS011;46837;52.446;-1.930;2024-02-15T00:34:07;12.82;;;6.38;;
60641;SDS011;46837;52.446;-1.930;2024-02-15T00:35:10;8.04;;;6.58;;
60641;SDS011;46837;52.446;-1.930;2024-02-15T00:36:07;8.32;;;6.12;;
60641;SDS011;46837;52.446;-1.930;2024-02-15T00:37:07;7.86;;;5.96;;
60641;SDS011;46837;52.446;-1.930;2024-02-15T00:38:08;10.86;;;6.94;;
60641;SDS011;46837;52.446;-1.930;2024-02-15T00:39:07;9.94;;;6.10;;
60641;SDS011;46837;52.446;-1.930;2024-02-15T00:40:07;7.34;;;6.56;;
60641;SDS011;46837;52.446;-1.930;2024-02-15T00:41:07;7.50;;;6.72;;
60641;SDS011;46837;52.446;-1.930;2024-02-15T00:42:09;7.46;;;6.34;;
60641;SDS011;46837;52.446;-1.930;2024-02-15T00:43:07;9.14;;;6.76;;
60641;SDS011;46837;52.446;-1.930;2024-02-15T00:44:09;7.38;;;6.64;;
60641;SDS011;46837;52.446;-1.930;2024-02-15T00:45:07;9.22;;;5.96;;
60641;SDS011;46837;52.446;-1.930;2024-02-15T00:46:07;8.36;;;6.46;;
60641;SDS011;46837;52.446;-1.930;2024-02-15T00:47:07;6.86;;;6.34;;
60641;SDS011;46837;52.446;-1.930;2024-02-15T00:48:07;6.66;;;5.98;;
60641;SDS011;46837;52.446;-1.930;2024-02-15T00:49:08;8.46;;;5.62;;
60641;SDS011;46837;52.446;-1.930;2024-02-15T00:50:07;8.10;;;5.72;;
60641;SDS011;46837;52.446;-1.930;2024-02-15T00:51:07;7.86;;;7.08;;
60641;SDS011;46837;52.446;-1.930;2024-02-15T00:52:07;7.18;;;6.58;;
60641;SDS011;46837;52.446;-1.930;2024-02-15T00:53:07;7.98;;;5.96;;
60641;SDS011;46837;52.446;-1.930;2024-02-15T00:54:07;5.16;;;4.74;;
60641;SDS011;46837;52.446;-1.930;2024-02-15T00:55:07;6.96;;;5.96;;
60641;SDS011;46837;52.446;-1.930;2024-02-15T00:56:07;6.70;;;6.12;;
60641;SDS011;46837;52.446;-1.930;2024-02-15T00:57:07;7.80;;;7.00;;
60641;SDS011;46837;52.446;-1.930;2024-02-15T00:58:07;7.32;;;5.92;;
60641;SDS011;46837;52.446;-1.930;2024-02-15T00:59:07;6.44;;;5.86;;
60641;SDS011;46837;52.446;-1.930;2024-02-15T01:00:07;8.74;;;6.52;;
60641;SDS011;46837;52.446;-1.930;2024-02-15T01:01:07;5.82;;;5.38;;
60641;SDS011;46837;52.446;-1.930;2024-02-15T01:02:08;6.96;;;6.16;;
60641;SDS011;46837;52.446;-1.930;2024-02-15T01:03:07;5.52;;;5.02;;
60641;SDS011;46837;52.446;-1.930;2024-02-15T01:04:07;6.46;;;5.98;;
60641;SDS011;46837;52.446;-1.930;2024-02-15T01:05:07;7.00;;;5.32;;
60641;SDS011;46837;52.446;-1.930;2024-02-15T01:06:07;6.38;;;5.46;;
60641;SDS011;46837;52.446;-1.930;2024-02-15T01:07:07;6.58;;;5.90;;
60641;SDS011;46837;52.446;-1.930;2024-02-15T01:08:07;6.20;;;5.30;;
60641;SDS011;46837;52.446;-1.930;2024-02-15T01:09:07;7.44;;;5.14;;
60641;SDS011;46837;52.446;-1.930;2024-02-15T01:10:07;7.74;;;6.40;;
60641;SDS011;46837;52.446;-1.930;2024-02-15T01:11:07;5.84;;;5.22;;
60641;SDS011;46837;52.446;-1.930;2024-02-15T01:12:07;5.56;;;5.12;;
60641;SDS011;46837;52.446;-1.930;2024-02-15T01:13:07;8.60;;;5.56;;
60641;SDS011;46837;52.446;-1.930;2024-02-15T01:14:07;9.10;;;7.22;;
60641;SDS011;46837;52.446;-1.930;2024-02-15T01:15:07;5.64;;;5.10;;
60641;SDS011;46837;52.446;-1.930;2024-02-15T01:16:07;5.96;;;5.42;;
60641;SDS011;46837;52.446;-1.930;2024-02-15T01:17:07;5.84;;;5.16;;
60641;SDS011;46837;52.446;-1.930;2024-02-15T01:18:07;6.88;;;5.30;;
60641;SDS011;46837;52.446;-1.930;2024-02-15T01:19:07;6.16;;;5.60;;
60641;SDS011;46837;52.446;-1.930;2024-02-15T01:20:07;5.94;;;5.44;;
60641;SDS011;46837;52.446;-1.930;2024-02-15T01:21:07;6.24;;;5.66;;
60641;SDS011;46837;52.446;-1.930;2024-02-15T01:22:07;6.16;;;5.64;;
60641;SDS011;46837;52.446;-1.930;2024-02-15T01:23:08;6.70;;;5.88;;
60641;SDS011;46837;52.446;-1.930;2024-02-15T01:24:07;10.40;;;6.22;;
60641;SDS011;46837;52.446;-1.930;2024-02-15T01:25:07;6.60;;;5.46;;
60641;SDS011;46837;52.446;-1.930;2024-02-15T01:26:07;8.30;;;6.02;;
60641;SDS011;46837;52.446;-1.930;2024-02-15T01:27:08;8.34;;;5.86;;
60641;SDS011;46837;52.446;-1.930;2024-02-15T01:28:07;5.96;;;5.42;;
60641;SDS011;46837;52.446;-1.930;2024-02-15T01:29:07;6.28;;;5.68;;
60641;SDS011;46837;52.446;-1.930;2024-02-15T01:30:07;8.78;;;6.46;;
60641;SDS011;46837;52.446;-1.930;2024-02-15T01:31:07;6.40;;;5.92;;
60641;SDS011;46837;52.446;-1.930;2024-02-15T01:32:07;6.50;;;5.90;;
60641;SDS011;46837;52.446;-1.930;2024-02-15T01:33:07;12.44;;;6.44;;
60641;SDS011;46837;52.446;-1.930;2024-02-15T01:34:07;5.96;;;5.54;;
60641;SDS011;46837;52.446;-1.930;2024-02-15T01:35:07;7.08;;;6.48;;
60641;SDS011;46837;52.446;-1.930;2024-02-15T01:36:07;6.66;;;6.06;;
60641;SDS011;46837;52.446;-1.930;2024-02-15T01:37:07;5.76;;;5.26;;
60641;SDS011;46837;52.446;-1.930;2024-02-15T01:38:07;8.22;;;6.06;;
60641;SDS011;46837;52.446;-1.930;2024-02-15T01:39:07;6.46;;;5.86;;
60641;SDS011;46837;52.446;-1.930;2024-02-15T01:40:07;6.54;;;5.94;;
60641;SDS011;46837;52.446;-1.930;2024-02-15T01:41:07;6.28;;;5.42;;
60641;SDS011;46837;52.446;-1.930;2024-02-15T01:42:07;6.48;;;5.90;;
60641;SDS011;46837;52.446;-1.930;2024-02-15T01:43:07;6.68;;;5.60;;
60641;SDS011;46837;52.446;-1.930;2024-02-15T01:44:07;10.80;;;5.82;;
60641;SDS011;46837;52.446;-1.930;2024-02-15T01:45:07;5.98;;;5.54;;
60641;SDS011;46837;52.446;-1.930;2024-02-15T01:46:07;5.92;;;5.34;;
60641;SDS011;46837;52.446;-1.930;2024-02-15T01:47:07;5.64;;;5.00;;
60641;SDS011;46837;52.446;-1.930;2024-02-15T01:48:07;5.76;;;5.30;;
60641;SDS011;46837;52.446;-1.930;2024-02-15T01:49:07;6.20;;;5.58;;
60641;SDS011;46837;52.446;-1.930;2024-02-15T01:50:07;5.28;;;4.88;;
60641;SDS011;46837;52.446;-1.930;2024-02-15T01:51:07;5.58;;;4.92;;
60641;SDS011;46837;52.446;-1.930;2024-02-15T01:52:07;6.20;;;5.50;;
60641;SDS011;46837;52.446;-1.930;2024-02-15T01:53:07;6.92;;;5.52;;
60641;SDS011;46837;52.446;-1.930;2024-02-15T01:54:07;6.10;;;5.02;;
60641;SDS011;46837;52.446;-1.930;2024-02-15T01:55:08;9.42;;;5.08;;
60641;SDS011;46837;52.446;-1.930;2024-02-15T01:56:07;4.90;;;4.50;;
60641;SDS011;46837;52.446;-1.930;2024-02-15T01:57:07;4.94;;;4.58;;
60641;SDS011;46837;52.446;-1.930;2024-02-15T01:58:07;5.32;;;4.72;;
60641;SDS011;46837;52.446;-1.930;2024-02-15T01:59:07;4.74;;;4.32;;
60641;SDS011;46837;52.446;-1.930;2024-02-15T02:00:07;4.92;;;4.54;;
60641;SDS011;46837;52.446;-1.930;2024-02-15T02:01:07;6.50;;;4.06;;
60641;SDS011;46837;52.446;-1.930;2024-02-15T02:02:08;4.98;;;4.58;;
60641;SDS011;46837;52.446;-1.930;2024-02-15T02:03:07;4.52;;;4.12;;
60641;SDS011;46837;52.446;-1.930;2024-02-15T02:04:07;4.66;;;4.36;;
60641;SDS011;46837;52.446;-1.930;2024-02-15T02:05:07;3.58;;;3.36;;
60641;SDS011;46837;52.446;-1.930;2024-02-15T02:06:07;5.04;;;4.60;;
60641;SDS011;46837;52.446;-1.930;2024-02-15T02:07:07;4.22;;;3.80;;
60641;SDS011;46837;52.446;-1.930;2024-02-15T02:08:10;4.28;;;3.62;;
60641;SDS011;46837;52.446;-1.930;2024-02-15T02:09:10;3.88;;;3.58;;
60641;SDS011;46837;52.446;-1.930;2024-02-15T02:10:07;3.64;;;3.36;;
60641;SDS011;46837;52.446;-1.930;2024-02-15T02:11:07;3.92;;;3.52;;
60641;SDS011;46837;52.446;-1.930;2024-02-15T02:12:07;6.34;;;3.40;;
60641;SDS011;46837;52.446;-1.930;2024-02-15T02:13:07;4.08;;;3.78;;
60641;SDS011;46837;52.446;-1.930;2024-02-15T02:14:07;3.60;;;3.26;;
60641;SDS011;46837;52.446;-1.930;2024-02-15T02:15:07;3.88;;;3.26;;
60641;SDS011;46837;52.446;-1.930;2024-02-15T02:18:07;3.58;;;3.30;;
60641;SDS011;46837;52.446;-1.930;2024-02-15T02:19:10;3.64;;;3.32;;
60641;SDS011;46837;52.446;-1.930;2024-02-15T02:20:09;3.54;;;3.18;;
60641;SDS011;46837;52.446;-1.930;2024-02-15T02:21:07;4.18;;;3.22;;
60641;SDS011;46837;52.446;-1.930;2024-02-15T02:22:07;3.70;;;3.12;;
60641;SDS011;46837;52.446;-1.930;2024-02-15T02:23:09;3.44;;;3.02;;
60641;SDS011;46837;52.446;-1.930;2024-02-15T02:24:11;3.28;;;2.98;;
60641;SDS011;46837;52.446;-1.930;2024-02-15T02:25:07;3.20;;;2.94;;
60641;SDS011;46837;52.446;-1.930;2024-02-15T02:26:07;3.40;;;3.10;;
60641;SDS011;46837;52.446;-1.930;2024-02-15T02:27:07;5.72;;;2.78;;
60641;SDS011;46837;52.446;-1.930;2024-02-15T02:28:07;4.50;;;3.16;;
60641;SDS011;46837;52.446;-1.930;2024-02-15T02:29:07;7.14;;;3.08;;
60641;SDS011;46837;52.446;-1.930;2024-02-15T02:31:07;4.18;;;2.62;;
60641;SDS011;46837;52.446;-1.930;2024-02-15T02:32:07;2.82;;;2.54;;
60641;SDS011;46837;52.446;-1.930;2024-02-15T02:34:07;4.02;;;3.52;;
60641;SDS011;46837;52.446;-1.930;2024-02-15T02:35:08;3.08;;;2.40;;
60641;SDS011;46837;52.446;-1.930;2024-02-15T02:36:10;5.04;;;3.02;;
60641;SDS011;46837;52.446;-1.930;2024-02-15T02:37:08;5.18;;;2.86;;
60641;SDS011;46837;52.446;-1.930;2024-02-15T02:38:07;3.42;;;3.08;;
60641;SDS011;46837;52.446;-1.930;2024-02-15T02:39:07;3.72;;;2.62;;
60641;SDS011;46837;52.446;-1.930;2024-02-15T02:40:07;3.80;;;3.46;;
60641;SDS011;46837;52.446;-1.930;2024-02-15T02:41:07;2.96;;;2.52;;
60641;SDS011;46837;52.446;-1.930;2024-02-15T02:42:07;3.06;;;2.86;;
60641;SDS011;46837;52.446;-1.930;2024-02-15T02:43:07;2.62;;;2.42;;
60641;SDS011;46837;52.446;-1.930;2024-02-15T02:44:07;2.84;;;2.64;;
60641;SDS011;46837;52.446;-1.930;2024-02-15T02:45:07;3.44;;;2.92;;
60641;SDS011;46837;52.446;-1.930;2024-02-15T02:46:09;2.96;;;2.72;;
60641;SDS011;46837;52.446;-1.930;2024-02-15T02:47:07;5.42;;;2.62;;
60641;SDS011;46837;52.446;-1.930;2024-02-15T02:48:07;5.20;;;2.74;;
60641;SDS011;46837;52.446;-1.930;2024-02-15T02:49:07;4.22;;;3.16;;
60641;SDS011;46837;52.446;-1.930;2024-02-15T02:50:07;4.92;;;2.74;;
60641;SDS011;46837;52.446;-1.930;2024-02-15T02:51:07;2.84;;;2.48;;
60641;SDS011;46837;52.446;-1.930;2024-02-15T02:52:07;2.94;;;2.42;;
60641;SDS011;46837;52.446;-1.930;2024-02-15T02:53:07;2.60;;;2.40;;
60641;SDS011;46837;52.446;-1.930;2024-02-15T02:54:07;4.92;;;2.78;;
60641;SDS011;46837;52.446;-1.930;2024-02-15T02:55:09;2.08;;;1.88;;
60641;SDS011;46837;52.446;-1.930;2024-02-15T02:56:07;4.24;;;2.32;;
60641;SDS011;46837;52.446;-1.930;2024-02-15T02:57:07;4.22;;;2.52;;
60641;SDS011;46837;52.446;-1.930;2024-02-15T02:58:07;4.66;;;2.62;;
60641;SDS011;46837;52.446;-1.930;2024-02-15T02:59:08;2.86;;;2.48;;
60641;SDS011;46837;52.446;-1.930;2024-02-15T03:00:07;2.82;;;2.28;;
60641;SDS011;46837;52.446;-1.930;2024-02-15T03:01:07;3.82;;;2.76;;
60641;SDS011;46837;52.446;-1.930;2024-02-15T03:02:07;6.94;;;3.86;;
60641;SDS011;46837;52.446;-1.930;2024-02-15T03:03:07;3.28;;;3.06;;
60641;SDS011;46837;52.446;-1.930;2024-02-15T03:04:07;3.36;;;2.82;;
60641;SDS011;46837;52.446;-1.930;2024-02-15T03:05:07;3.90;;;2.84;;
60641;SDS011;46837;52.446;-1.930;2024-02-15T03:06:07;3.08;;;2.86;;
60641;SDS011;46837;52.446;-1.930;2024-02-15T03:07:07;6.02;;;2.74;;
60641;SDS011;46837;52.446;-1.930;2024-02-15T03:08:09;4.12;;;3.20;;
60641;SDS011;46837;52.446;-1.930;2024-02-15T03:09:08;3.72;;;3.44;;
60641;SDS011;46837;52.446;-1.930;2024-02-15T03:10:09;3.62;;;3.36;;
60641;SDS011;46837;52.446;-1.930;2024-02-15T03:11:07;3.30;;;3.10;;
60641;SDS011;46837;52.446;-1.930;2024-02-15T03:12:07;3.58;;;2.82;;
60641;SDS011;46837;52.446;-1.930;2024-02-15T03:13:07;3.80;;;3.40;;
60641;SDS011;46837;52.446;-1.930;2024-02-15T03:14:07;3.78;;;3.48;;
60641;SDS011;46837;52.446;-1.930;2024-02-15T03:15:08;3.78;;;3.54;;
60641;SDS011;46837;52.446;-1.930;2024-02-15T03:16:07;2.74;;;2.54;;
60641;SDS011;46837;52.446;-1.930;2024-02-15T03:17:07;3.98;;;3.60;;
60641;SDS011;46837;52.446;-1.930;2024-02-15T03:18:07;3.04;;;2.84;;
60641;SDS011;46837;52.446;-1.930;2024-02-15T03:19:07;2.56;;;2.36;;
60641;SDS011;46837;52.446;-1.930;2024-02-15T03:20:11;2.72;;;2.40;;
60641;SDS011;46837;52.446;-1.930;2024-02-15T03:21:07;2.10;;;2.00;;
60641;SDS011;46837;52.446;-1.930;2024-02-15T03:22:07;2.50;;;2.30;;
60641;SDS011;46837;52.446;-1.930;2024-02-15T03:23:07;2.12;;;2.00;;
60641;SDS011;46837;52.446;-1.930;2024-02-15T03:24:07;2.04;;;1.94;;
60641;SDS011;46837;52.446;-1.930;2024-02-15T03:25:08;2.80;;;2.02;;
60641;SDS011;46837;52.446;-1.930;2024-02-15T03:26:07;1.92;;;1.82;;
60641;SDS011;46837;52.446;-1.930;2024-02-15T03:27:07;1.68;;;1.38;;
60641;SDS011;46837;52.446;-1.930;2024-02-15T03:28:07;1.46;;;1.36;;
60641;SDS011;46837;52.446;-1.930;2024-02-15T03:29:07;2.02;;;1.30;;
60641;SDS011;46837;52.446;-1.930;2024-02-15T03:30:07;2.26;;;1.52;;
60641;SDS011;46837;52.446;-1.930;2024-02-15T03:31:07;1.30;;;1.22;;
60641;SDS011;46837;52.446;-1.930;2024-02-15T03:32:07;0.70;;;0.70;;
60641;SDS011;46837;52.446;-1.930;2024-02-15T03:33:07;1.06;;;1.00;;
60641;SDS011;46837;52.446;-1.930;2024-02-15T03:34:07;1.50;;;1.34;;
60641;SDS011;46837;52.446;-1.930;2024-02-15T03:35:07;2.22;;;1.14;;
60641;SDS011;46837;52.446;-1.930;2024-02-15T03:36:07;1.08;;;1.04;;
60641;SDS011;46837;52.446;-1.930;2024-02-15T03:37:07;1.20;;;0.92;;
60641;SDS011;46837;52.446;-1.930;2024-02-15T03:38:07;1.30;;;0.92;;
60641;SDS011;46837;52.446;-1.930;2024-02-15T03:39:07;2.20;;;1.50;;
60641;SDS011;46837;52.446;-1.930;2024-02-15T03:40:07;2.24;;;1.98;;
60641;SDS011;46837;52.446;-1.930;2024-02-15T03:41:07;1.80;;;1.34;;
60641;SDS011;46837;52.446;-1.930;2024-02-15T03:42:07;2.32;;;1.50;;
60641;SDS011;46837;52.446;-1.930;2024-02-15T03:43:07;2.80;;;1.22;;
60641;SDS011;46837;52.446;-1.930;2024-02-15T03:44:07;1.62;;;1.28;;
60641;SDS011;46837;52.446;-1.930;2024-02-15T03:45:09;1.30;;;1.18;;
60641;SDS011;46837;52.446;-1.930;2024-02-15T03:46:08;1.40;;;1.30;;
60641;SDS011;46837;52.446;-1.930;2024-02-15T03:47:07;1.50;;;1.40;;
60641;SDS011;46837;52.446;-1.930;2024-02-15T03:48:07;3.22;;;1.32;;
60641;SDS011;46837;52.446;-1.930;2024-02-15T03:49:07;1.76;;;1.34;;
60641;SDS011;46837;52.446;-1.930;2024-02-15T03:50:07;1.72;;;1.62;;
60641;SDS011;46837;52.446;-1.930;2024-02-15T03:51:07;2.18;;;1.54;;
60641;SDS011;46837;52.446;-1.930;2024-02-15T03:52:07;5.32;;;1.90;;
60641;SDS011;46837;52.446;-1.930;2024-02-15T03:53:09;2.06;;;1.92;;
60641;SDS011;46837;52.446;-1.930;2024-02-15T03:54:07;1.66;;;1.56;;
60641;SDS011;46837;52.446;-1.930;2024-02-15T03:55:07;1.98;;;1.32;;
60641;SDS011;46837;52.446;-1.930;2024-02-15T03:56:07;2.38;;;1.72;;
60641;SDS011;46837;52.446;-1.930;2024-02-15T03:57:07;5.10;;;2.62;;
60641;SDS011;46837;52.446;-1.930;2024-02-15T03:58:07;1.70;;;1.20;;
60641;SDS011;46837;52.446;-1.930;2024-02-15T03:59:07;2.44;;;1.68;;
60641;SDS011;46837;52.446;-1.930;2024-02-15T04:00:07;1.44;;;1.18;;
60641;SDS011;46837;52.446;-1.930;2024-02-15T04:01:07;1.52;;;1.40;;
60641;SDS011;46837;52.446;-1.930;2024-02-15T04:02:09;2.06;;;1.34;;
60641;SDS011;46837;52.446;-1.930;2024-02-15T04:03:07;1.64;;;1.48;;
60641;SDS011;46837;52.446;-1.930;2024-02-15T04:04:07;1.54;;;1.32;;
60641;SDS011;46837;52.446;-1.930;2024-02-15T04:05:07;1.32;;;1.22;;
60641;SDS011;46837;52.446;-1.930;2024-02-15T04:06:07;1.60;;;1.20;;
60641;SDS011;46837;52.446;-1.930;2024-02-15T04:07:07;2.68;;;1.52;;
60641;SDS011;46837;52.446;-1.930;2024-02-15T04:08:07;1.74;;;1.64;;
60641;SDS011;46837;52.446;-1.930;2024-02-15T04:09:08;1.38;;;1.18;;
60641;SDS011;46837;52.446;-1.930;2024-02-15T04:10:07;4.36;;;2.40;;
60641;SDS011;46837;52.446;-1.930;2024-02-15T04:11:07;1.28;;;1.18;;
60641;SDS011;46837;52.446;-1.930;2024-02-15T04:12:08;2.24;;;1.26;;
60641;SDS011;46837;52.446;-1.930;2024-02-15T04:13:07;1.70;;;1.52;;
60641;SDS011;46837;52.446;-1.930;2024-02-15T04:14:07;2.88;;;2.04;;
60641;SDS011;46837;52.446;-1.930;2024-02-15T04:15:11;1.96;;;1.50;;
60641;SDS011;46837;52.446;-1.930;2024-02-15T04:16:07;2.56;;;1.02;;
60641;SDS011;46837;52.446;-1.930;2024-02-15T04:17:07;1.68;;;1.06;;
60641;SDS011;46837;52.446;-1.930;2024-02-15T04:18:07;1.38;;;1.08;;
60641;SDS011;46837;52.446;-1.930;2024-02-15T04:19:07;1.84;;;1.18;;
60641;SDS011;46837;52.446;-1.930;2024-02-15T04:20:07;3.44;;;1.68;;
60641;SDS011;46837;52.446;-1.930;2024-02-15T04:21:08;1.52;;;1.16;;
60641;SDS011;46837;52.446;-1.930;2024-02-15T04:22:08;1.78;;;1.58;;
60641;SDS011;46837;52.446;-1.930;2024-02-15T04:23:07;2.22;;;1.84;;
60641;SDS011;46837;52.446;-1.930;2024-02-15T04:24:07;2.44;;;1.40;;
60641;SDS011;46837;52.446;-1.930;2024-02-15T04:25:07;1.50;;;1.34;;
60641;SDS011;46837;52.446;-1.930;2024-02-15T04:26:07;2.36;;;1.24;;
60641;SDS011;46837;52.446;-1.930;2024-02-15T04:27:07;2.44;;;1.56;;
60641;SDS011;46837;52.446;-1.930;2024-02-15T04:28:07;1.86;;;1.70;;
60641;SDS011;46837;52.446;-1.930;2024-02-15T04:29:07;2.82;;;1.70;;
60641;SDS011;46837;52.446;-1.930;2024-02-15T04:30:08;1.56;;;1.30;;
60641;SDS011;46837;52.446;-1.930;2024-02-15T04:31:09;1.86;;;1.28;;
60641;SDS011;46837;52.446;-1.930;2024-02-15T04:32:07;3.54;;;1.54;;
60641;SDS011;46837;52.446;-1.930;2024-02-15T04:33:09;5.78;;;1.24;;
60641;SDS011;46837;52.446;-1.930;2024-02-15T04:34:07;2.12;;;1.46;;
60641;SDS011;46837;52.446;-1.930;2024-02-15T04:35:07;1.80;;;1.38;;
60641;SDS011;46837;52.446;-1.930;2024-02-15T04:36:07;2.58;;;1.96;;
60641;SDS011;46837;52.446;-1.930;2024-02-15T04:37:09;2.74;;;1.84;;
60641;SDS011;46837;52.446;-1.930;2024-02-15T04:38:07;1.84;;;1.48;;
60641;SDS011;46837;52.446;-1.930;2024-02-15T04:39:07;2.28;;;2.06;;
60641;SDS011;46837;52.446;-1.930;2024-02-15T04:40:11;2.30;;;2.08;;
60641;SDS011;46837;52.446;-1.930;2024-02-15T04:41:09;2.22;;;2.06;;
60641;SDS011;46837;52.446;-1.930;2024-02-15T04:42:11;1.80;;;1.70;;
60641;SDS011;46837;52.446;-1.930;2024-02-15T04:43:07;2.64;;;1.62;;
60641;SDS011;46837;52.446;-1.930;2024-02-15T04:44:09;3.62;;;2.08;;
60641;SDS011;46837;52.446;-1.930;2024-02-15T04:45:09;2.02;;;1.88;;
60641;SDS011;46837;52.446;-1.930;2024-02-15T04:46:08;3.50;;;2.00;;
60641;SDS011;46837;52.446;-1.930;2024-02-15T04:47:07;4.72;;;2.50;;
60641;SDS011;46837;52.446;-1.930;2024-02-15T04:48:07;3.94;;;2.04;;
60641;SDS011;46837;52.446;-1.930;2024-02-15T04:49:07;3.70;;;2.38;;
60641;SDS011;46837;52.446;-1.930;2024-02-15T04:50:07;3.18;;;1.82;;
60641;SDS011;46837;52.446;-1.930;2024-02-15T04:51:07;2.68;;;2.18;;
60641;SDS011;46837;52.446;-1.930;2024-02-15T04:52:07;2.10;;;2.00;;
60641;SDS011;46837;52.446;-1.930;2024-02-15T04:53:08;5.12;;;2.48;;
60641;SDS011;46837;52.446;-1.930;2024-02-15T04:54:08;2.22;;;1.64;;
60641;SDS011;46837;52.446;-1.930;2024-02-15T04:55:07;3.98;;;2.40;;
60641;SDS011;46837;52.446;-1.930;2024-02-15T04:56:11;4.48;;;2.18;;
60641;SDS011;46837;52.446;-1.930;2024-02-15T04:57:07;2.56;;;2.38;;
60641;SDS011;46837;52.446;-1.930;2024-02-15T04:58:07;2.94;;;2.16;;
60641;SDS011;46837;52.446;-1.930;2024-02-15T04:59:09;3.46;;;2.22;;
60641;SDS011;46837;52.446;-1.930;2024-02-15T05:00:11;2.64;;;1.90;;
60641;SDS011;46837;52.446;-1.930;2024-02-15T05:01:07;2.36;;;2.16;;
60641;SDS011;46837;52.446;-1.930;2024-02-15T05:02:07;2.42;;;2.22;;
60641;SDS011;46837;52.446;-1.930;2024-02-15T05:03:08;2.78;;;2.58;;
60641;SDS011;46837;52.446;-1.930;2024-02-15T05:04:07;2.34;;;2.14;;
60641;SDS011;46837;52.446;-1.930;2024-02-15T05:05:07;2.46;;;2.26;;
60641;SDS011;46837;52.446;-1.930;2024-02-15T05:06:07;2.66;;;2.46;;
60641;SDS011;46837;52.446;-1.930;2024-02-15T05:07:07;3.32;;;3.00;;
60641;SDS011;46837;52.446;-1.930;2024-02-15T05:08:07;2.84;;;2.16;;
60641;SDS011;46837;52.446;-1.930;2024-02-15T05:09:10;3.88;;;2.80;;
60641;SDS011;46837;52.446;-1.930;2024-02-15T05:10:07;2.70;;;2.50;;
60641;SDS011;46837;52.446;-1.930;2024-02-15T05:11:07;4.84;;;3.80;;
60641;SDS011;46837;52.446;-1.930;2024-02-15T05:12:07;5.16;;;3.12;;
60641;SDS011;46837;52.446;-1.930;2024-02-15T05:13:07;4.42;;;2.86;;
60641;SDS011;46837;52.446;-1.930;2024-02-15T05:14:07;3.94;;;3.46;;
60641;SDS011;46837;52.446;-1.930;2024-02-15T05:15:11;6.48;;;3.50;;
60641;SDS011;46837;52.446;-1.930;2024-02-15T05:16:07;3.38;;;3.10;;
60641;SDS011;46837;52.446;-1.930;2024-02-15T05:17:11;8.22;;;3.96;;
60641;SDS011;46837;52.446;-1.930;2024-02-15T05:18:09;4.22;;;3.86;;
60641;SDS011;46837;52.446;-1.930;2024-02-15T05:19:07;4.10;;;3.68;;
60641;SDS011;46837;52.446;-1.930;2024-02-15T05:20:11;4.30;;;4.00;;
60641;SDS011;46837;52.446;-1.930;2024-02-15T05:21:10;4.54;;;4.10;;
60641;SDS011;46837;52.446;-1.930;2024-02-15T05:22:07;4.86;;;4.46;;
60641;SDS011;46837;52.446;-1.930;2024-02-15T05:23:07;4.26;;;3.88;;
60641;SDS011;46837;52.446;-1.930;2024-02-15T05:24:07;4.62;;;4.14;;
60641;SDS011;46837;52.446;-1.930;2024-02-15T05:25:07;4.76;;;3.96;;
60641;SDS011;46837;52.446;-1.930;2024-02-15T05:26:08;5.10;;;4.66;;
60641;SDS011;46837;52.446;-1.930;2024-02-15T05:27:07;4.72;;;4.38;;
60641;SDS011;46837;52.446;-1.930;2024-02-15T05:28:09;5.28;;;4.88;;
60641;SDS011;46837;52.446;-1.930;2024-02-15T05:29:07;6.66;;;5.16;;
60641;SDS011;46837;52.446;-1.930;2024-02-15T05:30:07;5.60;;;5.12;;
60641;SDS011;46837;52.446;-1.930;2024-02-15T05:32:07;4.96;;;4.56;;
60641;SDS011;46837;52.446;-1.930;2024-02-15T05:33:08;7.54;;;4.90;;
60641;SDS011;46837;52.446;-1.930;2024-02-15T05:34:07;4.96;;;4.54;;
60641;SDS011;46837;52.446;-1.930;2024-02-15T05:35:08;9.18;;;5.52;;
60641;SDS011;46837;52.446;-1.930;2024-02-15T05:36:07;5.34;;;4.84;;
60641;SDS011;46837;52.446;-1.930;2024-02-15T05:37:08;5.78;;;4.92;;
60641;SDS011;46837;52.446;-1.930;2024-02-15T05:38:07;5.36;;;4.96;;
60641;SDS011;46837;52.446;-1.930;2024-02-15T05:39:07;8.04;;;4.96;;
60641;SDS011;46837;52.446;-1.930;2024-02-15T05:40:07;6.10;;;5.58;;
60641;SDS011;46837;52.446;-1.930;2024-02-15T05:41:08;5.44;;;4.94;;
60641;SDS011;46837;52.446;-1.930;2024-02-15T05:42:07;8.04;;;6.40;;
60641;SDS011;46837;52.446;-1.930;2024-02-15T05:43:07;5.74;;;5.26;;
60641;SDS011;46837;52.446;-1.930;2024-02-15T05:44:07;7.20;;;6.58;;
60641;SDS011;46837;52.446;-1.930;2024-02-15T05:46:07;6.06;;;5.54;;
60641;SDS011;46837;52.446;-1.930;2024-02-15T05:47:07;6.48;;;5.88;;
60641;SDS011;46837;52.446;-1.930;2024-02-15T05:48:07;10.22;;;6.52;;
60641;SDS011;46837;52.446;-1.930;2024-02-15T05:49:07;6.72;;;6.08;;
60641;SDS011;46837;52.446;-1.930;2024-02-15T05:50:07;9.60;;;6.82;;
60641;SDS011;46837;52.446;-1.930;2024-02-15T05:51:07;7.60;;;6.76;;
60641;SDS011;46837;52.446;-1.930;2024-02-15T05:52:07;6.30;;;5.82;;
60641;SDS011;46837;52.446;-1.930;2024-02-15T05:53:07;7.26;;;6.64;;
60641;SDS011;46837;52.446;-1.930;2024-02-15T05:54:07;6.76;;;6.02;;
60641;SDS011;46837;52.446;-1.930;2024-02-15T05:55:07;6.48;;;5.82;;
60641;SDS011;46837;52.446;-1.930;2024-02-15T05:56:07;7.92;;;5.94;;
60641;SDS011;46837;52.446;-1.930;2024-02-15T05:57:07;6.14;;;5.54;;
60641;SDS011;46837;52.446;-1.930;2024-02-15T05:58:07;6.82;;;6.22;;
60641;SDS011;46837;52.446;-1.930;2024-02-15T05:59:11;6.94;;;5.48;;
60641;SDS011;46837;52.446;-1.930;2024-02-15T06:00:07;7.64;;;6.44;;
60641;SDS011;46837;52.446;-1.930;2024-02-15T06:01:07;9.56;;;5.88;;